Time;durP1;ratioP1;P1;durP2;ratioP2;P2;SDS_P1;SDS_P2;PMS_P1;PMS_P2;Temp;Humidity;BMP_temperature;BMP_pressure;BME280_temperature;BME280_humidity;BME280_pressure;Samples;Min_cycle;Max_cycle;Signal;HPM_P1;HPM_P2
2021/08/29 00:00:59;;;;;;;;;;;;;;;20.96;61.86;101163.75;4977237;28;99189;-75
2021/08/29 00:03:26;;;;;;;;;;;;;;;20.86;62.07;101170.78;4976957;28;96888;-76
2021/08/29 00:05:52;;;;;;;;;;;;;;;20.89;62.14;101165.16;4976944;28;96804;-75
2021/08/29 00:08:19;;;;;;;;;;;;;;;20.84;62.06;101161.97;4977116;28;101920;-76
2021/08/29 00:10:45;;;;;;;;;;;;;;;20.87;62.05;101157.22;4978301;28;99402;-76
2021/08/29 00:13:13;;;;;;;;;;;;;;;20.70;62.59;101160.25;4977608;28;96646;-75
2021/08/29 00:15:39;;;;;;;;;;;;;;;20.83;62.23;101155.72;4976824;28;96827;-75
2021/08/29 00:18:05;;;;;;;;;;;;;;;20.92;62.01;101160.44;4970411;28;99241;-74
2021/08/29 00:20:32;;;;;;;;;;;;;;;20.86;61.88;101160.88;4956791;28;98910;-74
2021/08/29 00:22:58;;;;;;;;;;;;;;;21.06;61.59;101154.94;4957014;28;96731;-74
2021/08/29 00:25:25;;;;;;;;;;;;;;;21.05;61.34;101155.91;4957315;28;96740;-74
2021/08/29 00:27:51;;;;;;;;;;;;;;;21.00;61.38;101158.03;4957187;28;99017;-75
2021/08/29 00:30:19;;;;;;;;;;;;;;;21.12;61.45;101155.47;4956188;28;97777;-75
2021/08/29 00:32:45;;;;;;;;;;;;;;;21.24;60.73;101154.59;4956784;28;96717;-75
2021/08/29 00:35:11;;;;;;;;;;;;;;;21.14;61.05;101148.13;4956328;28;96829;-75
2021/08/29 00:37:37;;;;;;;;;;;;;;;21.07;61.21;101151.25;4956186;28;98918;-75
2021/08/29 00:40:04;;;;;;;;;;;;;;;21.16;61.15;101154.28;4955278;28;99070;-75
2021/08/29 00:42:31;;;;;;;;;;;;;;;21.06;61.08;101149.56;4956654;28;96749;-75
2021/08/29 00:44:57;;;;;;;;;;;;;;;21.11;61.05;101151.91;4959051;28;96785;-75
2021/08/29 00:47:25;;;;;;;;;;;;;;;21.19;60.77;101146.88;4959469;28;98976;-75
2021/08/29 00:49:51;;;;;;;;;;;;;;;21.12;60.88;101142.03;4959160;28;98773;-74
2021/08/29 00:52:17;;;;;;;;;;;;;;;21.17;60.76;101143.44;4957152;28;96979;-75
2021/08/29 00:54:44;;;;;;;;;;;;;;;20.98;61.19;101149.25;4956737;28;97091;-75
2021/08/29 00:57:11;;;;;;;;;;;;;;;20.73;62.03;101146.63;4956285;28;99054;-75
2021/08/29 00:59:38;;;;;;;;;;;;;;;20.75;61.97;101141.97;4957849;28;99234;-75
2021/08/29 01:02:08;;;;;;;;;;;;;;;20.91;61.44;101149.81;4961179;28;96685;-75
2021/08/29 01:04:39;;;;;;;;;;;;;;;21.03;61.09;101141.72;4958968;28;96942;-75
2021/08/29 01:07:09;;;;;;;;;;;;;;;20.86;61.71;101149.28;4959219;28;98942;-75
2021/08/29 01:09:37;;;;;;;;;;;;;;;20.92;61.37;101144.34;4967345;28;96832;-74
2021/08/29 01:12:05;;;;;;;;;;;;;;;21.03;61.00;101141.72;4974252;28;96838;-74
2021/08/29 01:14:32;;;;;;;;;;;;;;;20.74;61.74;101144.81;4974005;28;96692;-75
2021/08/29 01:17:01;;;;;;;;;;;;;;;20.48;62.49;101141.28;4974653;28;97053;-74
2021/08/29 01:19:32;;;;;;;;;;;;;;;20.73;62.17;101146.63;4973897;28;101371;-75
2021/08/29 01:22:01;;;;;;;;;;;;;;;20.32;63.44;101145.97;4974269;28;96955;-73
2021/08/29 01:24:28;;;;;;;;;;;;;;;20.56;62.45;101141.56;4975217;28;96680;-74
2021/08/29 01:26:56;;;;;;;;;;;;;;;20.60;62.57;101138.59;4975608;28;97825;-74
2021/08/29 01:29:25;;;;;;;;;;;;;;;20.85;61.72;101148.44;4976836;28;98051;-74
2021/08/29 01:31:53;;;;;;;;;;;;;;;20.68;61.84;101146.94;4976344;28;96755;-74
2021/08/29 01:34:19;;;;;;;;;;;;;;;20.68;61.84;101138.88;4977895;28;96498;-74
2021/08/29 01:36:47;;;;;;;;;;;;;;;20.80;61.55;101142.53;4976628;28;99867;-74
2021/08/29 01:39:17;;;;;;;;;;;;;;;20.64;61.91;101144.59;4968959;28;98868;-74
2021/08/29 01:41:45;;;;;;;;;;;;;;;20.48;62.35;101142.09;4964777;28;96689;-74
2021/08/29 01:44:11;;;;;;;;;;;;;;;20.46;62.57;101146.75;4961710;28;97917;-74
2021/08/29 01:46:41;;;;;;;;;;;;;;;20.51;62.69;101147.28;4957562;28;98966;-74
2021/08/29 01:49:08;;;;;;;;;;;;;;;20.41;62.97;101142.69;4957568;28;99212;-74
2021/08/29 01:51:34;;;;;;;;;;;;;;;20.51;62.81;101141.03;4956086;28;96749;-75
2021/08/29 01:54:01;;;;;;;;;;;;;;;20.52;62.38;101140.94;4957405;28;96688;-75
2021/08/29 01:56:27;;;;;;;;;;;;;;;20.21;63.74;101139.53;4955778;28;98892;-74
2021/08/29 01:58:53;;;;;;;;;;;;;;;20.55;62.73;101137.16;4958160;28;99236;-75
2021/08/29 02:01:20;;;;;;;;;;;;;;;20.65;61.93;101135.56;4960339;28;96663;-75
2021/08/29 02:03:47;;;;;;;;;;;;;;;20.70;62.11;101133.41;4961140;28;96866;-75
2021/08/29 02:06:17;;;;;;;;;;;;;;;20.73;61.61;101138.56;4959502;28;98190;-74
2021/08/29 02:08:47;;;;;;;;;;;;;;;20.51;62.64;101130.31;4959758;28;100063;-74
2021/08/29 02:11:14;;;;;;;;;;;;;;;20.61;61.93;101132.22;4957473;28;96617;-74
2021/08/29 02:13:41;;;;;;;;;;;;;;;20.58;62.13;101128.91;4958267;28;97025;-74
2021/08/29 02:16:10;;;;;;;;;;;;;;;20.70;61.62;101133.41;4956195;28;96979;-75
2021/08/29 02:18:37;;;;;;;;;;;;;;;20.98;61.16;101134.97;4954665;28;98973;-75
2021/08/29 02:21:05;;;;;;;;;;;;;;;21.06;60.82;101129.91;4955708;28;96913;-75
2021/08/29 02:23:32;;;;;;;;;;;;;;;20.94;61.10;101130.75;4955199;28;96769;-75
2021/08/29 02:25:58;;;;;;;;;;;;;;;20.88;60.70;101139.25;4954991;28;98971;-75
2021/08/29 02:28:25;;;;;;;;;;;;;;;20.60;61.91;101135.03;4954806;28;98834;-75
2021/08/29 02:30:54;;;;;;;;;;;;;;;20.32;63.49;101137.91;4959101;28;96722;-75
2021/08/29 02:33:21;;;;;;;;;;;;;;;20.16;63.65;101128.22;4959348;28;97543;-74
2021/08/29 02:35:49;;;;;;;;;;;;;;;20.47;62.68;101127.00;4957071;28;98135;-74
2021/08/29 02:38:18;;;;;;;;;;;;;;;20.76;61.82;101126.72;4938886;28;99194;-74
2021/08/29 02:40:44;;;;;;;;;;;;;;;20.67;61.77;101117.53;4957540;28;96777;-75
2021/08/29 02:43:11;;;;;;;;;;;;;;;20.55;62.18;101123.75;4956800;28;97347;-76
2021/08/29 02:45:40;;;;;;;;;;;;;;;20.57;61.53;101120.00;4955670;28;97860;-75
2021/08/29 02:48:06;;;;;;;;;;;;;;;20.38;62.15;101122.25;4953926;28;99500;-75
2021/08/29 02:50:33;;;;;;;;;;;;;;;20.59;61.96;101115.38;4954826;28;97022;-74
2021/08/29 02:52:59;;;;;;;;;;;;;;;20.75;61.07;101117.81;4954862;28;97051;-74
2021/08/29 02:55:27;;;;;;;;;;;;;;;20.58;61.79;101123.53;4953862;28;99276;-75
2021/08/29 02:57:57;;;;;;;;;;;;;;;20.82;60.74;101123.59;4953810;28;99179;-75
2021/08/29 03:00:24;;;;;;;;;;;;;;;20.85;61.00;101126.94;4953782;28;97172;-75
2021/08/29 03:02:50;;;;;;;;;;;;;;;20.74;61.47;101126.88;4953787;28;96825;-75
2021/08/29 03:05:16;;;;;;;;;;;;;;;20.96;60.15;101124.31;4953835;28;98911;-75
2021/08/29 03:07:43;;;;;;;;;;;;;;;20.72;60.47;101128.78;4953962;28;99114;-75
2021/08/29 03:10:10;;;;;;;;;;;;;;;20.76;61.09;101126.72;4954259;28;96853;-75
2021/08/29 03:12:38;;;;;;;;;;;;;;;20.64;61.35;101125.78;4953911;28;96815;-75
2021/08/29 03:15:05;;;;;;;;;;;;;;;20.83;60.45;101126.19;4953376;28;99256;-75
2021/08/29 03:17:32;;;;;;;;;;;;;;;20.74;60.84;101124.19;4954045;28;98857;-75
2021/08/29 03:20:00;;;;;;;;;;;;;;;20.64;60.83;101118.59;4953910;28;96717;-75
2021/08/29 03:22:27;;;;;;;;;;;;;;;20.92;59.90;101109.41;4953648;28;96751;-76
2021/08/29 03:24:53;;;;;;;;;;;;;;;20.99;59.67;101109.81;4953156;28;98897;-76
2021/08/29 03:27:20;;;;;;;;;;;;;;;20.82;59.84;101105.66;4953814;28;98825;-75
2021/08/29 03:29:47;;;;;;;;;;;;;;;20.86;59.87;101106.31;4953731;28;97359;-74
2021/08/29 03:32:13;;;;;;;;;;;;;;;20.92;59.99;101108.56;4953596;28;96863;-74
2021/08/29 03:34:40;;;;;;;;;;;;;;;20.89;59.47;101100.69;4954296;28;98927;-75
2021/08/29 03:37:06;;;;;;;;;;;;;;;20.84;59.14;101113.63;4953813;28;98862;-76
2021/08/29 03:39:34;;;;;;;;;;;;;;;20.79;59.44;101108.59;4953894;28;96803;-75
2021/08/29 03:42:01;;;;;;;;;;;;;;;20.62;59.82;101109.78;4954758;28;97129;-75
2021/08/29 03:44:27;;;;;;;;;;;;;;;20.59;59.70;101103.78;4953487;28;99370;-75
2021/08/29 03:46:55;;;;;;;;;;;;;;;20.73;59.41;101105.47;4953438;28;99178;-74
2021/08/29 03:49:22;;;;;;;;;;;;;;;20.59;60.00;101103.78;4953201;28;96751;-75
2021/08/29 03:51:49;;;;;;;;;;;;;;;20.71;59.47;101107.41;4953483;28;96991;-75
2021/08/29 03:54:15;;;;;;;;;;;;;;;20.76;59.33;101099.88;4953223;28;99492;-75
2021/08/29 03:56:42;;;;;;;;;;;;;;;20.77;59.31;101097.09;4953132;28;98784;-75
2021/08/29 03:59:08;;;;;;;;;;;;;;;20.66;59.66;101097.00;4953675;28;96644;-76
2021/08/29 04:01:35;;;;;;;;;;;;;;;20.57;60.22;101100.34;4953921;28;96789;-76
2021/08/29 04:04:03;;;;;;;;;;;;;;;20.58;60.68;101105.59;4954311;28;99192;-75
2021/08/29 04:06:33;;;;;;;;;;;;;;;20.55;60.75;101107.63;4954489;28;98892;-76
2021/08/29 04:09:03;;;;;;;;;;;;;;;20.53;61.15;101101.53;4955007;28;96826;-76
2021/08/29 04:11:30;;;;;;;;;;;;;;;20.59;60.29;101101.97;4954791;28;97068;-75
2021/08/29 04:13:57;;;;;;;;;;;;;;;20.51;60.39;101104.31;4959016;28;97811;-75
2021/08/29 04:16:24;;;;;;;;;;;;;;;20.60;60.32;101100.13;4963471;28;99005;-74
2021/08/29 04:18:50;;;;;;;;;;;;;;;20.66;60.14;101107.75;4965840;28;96740;-75
2021/08/29 04:21:19;;;;;;;;;;;;;;;20.65;60.00;101108.72;4963713;28;97246;-75
2021/08/29 04:23:45;;;;;;;;;;;;;;;20.70;59.80;101098.50;4959095;28;99314;-75
2021/08/29 04:26:12;;;;;;;;;;;;;;;20.69;60.19;101104.81;4959629;28;98847;-75
2021/08/29 04:28:39;;;;;;;;;;;;;;;20.54;60.32;101103.25;4959484;28;96709;-75
2021/08/29 04:31:08;;;;;;;;;;;;;;;20.60;60.33;101108.19;4959582;28;96822;-77
2021/08/29 04:33:35;;;;;;;;;;;;;;;20.71;59.85;101100.22;4959009;28;98896;-75
2021/08/29 04:36:01;;;;;;;;;;;;;;;20.71;59.74;101107.41;4956944;28;100398;-75
2021/08/29 04:38:28;;;;;;;;;;;;;;;20.65;60.67;101111.41;4956062;28;96756;-75
2021/08/29 04:40:59;;;;;;;;;;;;;;;20.68;60.86;101116.53;4957451;28;96851;-76
2021/08/29 04:43:25;;;;;;;;;;;;;;;20.79;60.51;101108.59;4954403;28;97826;-75
2021/08/29 04:45:51;;;;;;;;;;;;;;;20.71;60.70;101110.97;4956099;28;98975;-76
2021/08/29 04:48:18;;;;;;;;;;;;;;;20.70;60.74;101117.28;4956494;28;96764;-75
2021/08/29 04:50:44;;;;;;;;;;;;;;;20.38;61.35;101113.34;4956411;28;96801;-75
2021/08/29 04:53:10;;;;;;;;;;;;;;;20.55;61.21;101110.31;4955924;28;99242;-75
2021/08/29 04:55:38;;;;;;;;;;;;;;;20.64;61.10;101115.91;4956377;28;98789;-74
2021/08/29 04:58:04;;;;;;;;;;;;;;;20.65;60.62;101114.09;4956170;28;96716;-75
2021/08/29 05:00:31;;;;;;;;;;;;;;;20.75;60.72;101114.25;4955937;28;96813;-75
2021/08/29 05:02:57;;;;;;;;;;;;;;;20.83;60.82;101112.75;4955363;28;98422;-75
2021/08/29 05:05:23;;;;;;;;;;;;;;;20.95;60.45;101111.84;4956104;28;100529;-76
2021/08/29 05:07:49;;;;;;;;;;;;;;;20.89;60.97;101112.31;4956588;28;96695;-75
2021/08/29 05:10:16;;;;;;;;;;;;;;;20.83;61.21;101118.13;4956383;28;97060;-75
2021/08/29 05:12:43;;;;;;;;;;;;;;;20.84;61.36;101119.84;4955468;28;99014;-75
2021/08/29 05:15:10;;;;;;;;;;;;;;;20.67;62.15;101118.38;4956545;28;99022;-76
2021/08/29 05:17:36;;;;;;;;;;;;;;;20.63;61.94;101116.00;4957529;28;96780;-75
2021/08/29 05:20:03;;;;;;;;;;;;;;;20.68;61.76;101116.53;4958086;28;96774;-76
2021/08/29 05:22:29;;;;;;;;;;;;;;;20.69;61.79;101116.44;4959070;28;98742;-76
2021/08/29 05:24:56;;;;;;;;;;;;;;;20.76;61.79;101110.63;4955637;28;99587;-75
2021/08/29 05:27:22;;;;;;;;;;;;;;;20.83;61.73;101112.75;4955664;28;96672;-76
2021/08/29 05:29:49;;;;;;;;;;;;;;;20.75;62.23;101119.63;4955990;28;96783;-75
2021/08/29 05:32:16;;;;;;;;;;;;;;;20.59;62.78;101117.22;4955555;28;99323;-77
2021/08/29 05:34:42;;;;;;;;;;;;;;;20.68;62.41;101106.66;4955927;28;98976;-74
2021/08/29 05:37:08;;;;;;;;;;;;;;;20.76;62.09;101111.47;4955725;28;96863;-75
2021/08/29 05:39:34;;;;;;;;;;;;;;;20.82;61.99;101111.03;4956283;28;96753;-75
2021/08/29 05:42:01;;;;;;;;;;;;;;;20.87;61.46;101114.22;4956690;28;99277;-75
2021/08/29 05:44:27;;;;;;;;;;;;;;;20.93;61.58;101115.66;4958399;28;98989;-75
2021/08/29 05:46:55;;;;;;;;;;;;;;;20.80;61.80;101123.72;4956449;28;96626;-75
2021/08/29 05:49:21;;;;;;;;;;;;;;;20.91;61.67;101126.50;4956037;28;97087;-75
2021/08/29 05:51:47;;;;;;;;;;;;;;;20.98;61.36;101125.06;4954815;28;97816;-77
2021/08/29 05:54:14;;;;;;;;;;;;;;;21.00;61.35;101123.13;4956575;28;98898;-75
2021/08/29 05:56:40;;;;;;;;;;;;;;;21.08;61.15;101126.09;4956005;28;96786;-75
2021/08/29 05:59:07;;;;;;;;;;;;;;;20.85;62.19;101128.75;4956009;28;96755;-75
2021/08/29 06:01:33;;;;;;;;;;;;;;;20.87;62.24;101135.72;4955733;28;98131;-75
2021/08/29 06:04:01;;;;;;;;;;;;;;;20.41;63.10;101129.25;4955443;28;99244;-75
2021/08/29 06:06:27;;;;;;;;;;;;;;;20.79;62.63;101127.38;4956592;28;96932;-75
2021/08/29 06:08:53;;;;;;;;;;;;;;;20.78;62.57;101128.34;4959759;28;96696;-74
2021/08/29 06:11:20;;;;;;;;;;;;;;;20.80;62.22;101123.72;4955374;28;98840;-75
2021/08/29 06:13:46;;;;;;;;;;;;;;;20.96;61.71;101118.94;4956156;28;99240;-75
2021/08/29 06:16:12;;;;;;;;;;;;;;;20.84;61.51;101124.34;4956214;28;96649;-75
2021/08/29 06:18:39;;;;;;;;;;;;;;;20.53;62.78;101120.34;4957510;28;96819;-75
2021/08/29 06:21:06;;;;;;;;;;;;;;;20.72;61.87;101126.09;4962821;28;97747;-74
2021/08/29 06:23:33;;;;;;;;;;;;;;;20.81;61.73;101113.81;4958367;28;98033;-74
2021/08/29 06:26:00;;;;;;;;;;;;;;;20.59;62.42;101111.84;4960312;28;96952;-75
2021/08/29 06:28:26;;;;;;;;;;;;;;;20.69;61.83;101112.88;4966277;28;96798;-72
2021/08/29 06:30:53;;;;;;;;;;;;;;;20.80;61.93;101113.00;4977057;28;97778;-75
2021/08/29 06:33:19;;;;;;;;;;;;;;;20.75;62.25;101115.13;4978004;28;97672;-76
2021/08/29 06:35:45;;;;;;;;;;;;;;;20.78;62.47;101109.53;4974508;28;96567;-76
2021/08/29 06:38:13;;;;;;;;;;;;;;;20.85;62.02;101101.91;4977614;28;96832;-75
2021/08/29 06:40:39;;;;;;;;;;;;;;;20.84;62.04;101113.63;4977039;28;98174;-75
2021/08/29 06:43:06;;;;;;;;;;;;;;;20.82;61.79;101110.16;4974122;28;97716;-73
2021/08/29 06:45:32;;;;;;;;;;;;;;;20.74;62.10;101110.75;4977945;28;96758;-73
2021/08/29 06:47:58;;;;;;;;;;;;;;;20.83;62.20;101112.75;4978197;28;96256;-74
2021/08/29 06:50:24;;;;;;;;;;;;;;;20.76;62.70;101099.88;4973746;28;97793;-74
2021/08/29 06:52:51;;;;;;;;;;;;;;;20.67;62.70;101096.03;4977945;28;97669;-74
2021/08/29 06:55:18;;;;;;;;;;;;;;;20.77;62.62;101098.91;4977928;28;96562;-76
2021/08/29 06:57:45;;;;;;;;;;;;;;;20.87;62.42;101090.06;4978144;28;96475;-72
2021/08/29 07:00:11;;;;;;;;;;;;;;;20.81;62.65;101086.97;4963490;28;98082;-75
2021/08/29 07:02:38;;;;;;;;;;;;;;;20.69;62.47;101091.41;4957402;28;99221;-75
2021/08/29 07:05:04;;;;;;;;;;;;;;;20.88;62.29;101094.47;4956531;28;96756;-75
2021/08/29 07:07:32;;;;;;;;;;;;;;;20.83;62.55;101095.78;4956174;28;96896;-75
2021/08/29 07:09:58;;;;;;;;;;;;;;;20.81;62.62;101098.56;4955910;28;99337;-76
2021/08/29 07:12:25;;;;;;;;;;;;;;;20.81;62.74;101101.25;4954935;28;99000;-75
2021/08/29 07:14:52;;;;;;;;;;;;;;;20.79;62.57;101095.16;4955977;28;96723;-75
2021/08/29 07:17:18;;;;;;;;;;;;;;;20.85;61.98;101099.22;4955423;28;96918;-75
2021/08/29 07:19:45;;;;;;;;;;;;;;;20.98;61.96;101098.22;4954992;28;99084;-75
2021/08/29 07:22:11;;;;;;;;;;;;;;;20.99;61.21;101110.69;4955708;28;99177;-76
2021/08/29 07:24:38;;;;;;;;;;;;;;;20.96;61.55;101113.56;4956121;28;96664;-76
2021/08/29 07:27:04;;;;;;;;;;;;;;;20.92;61.75;101116.59;4956500;28;97208;-75
2021/08/29 07:29:32;;;;;;;;;;;;;;;21.04;61.29;101121.94;4954929;28;99345;-76
2021/08/29 07:31:59;;;;;;;;;;;;;;;20.98;61.40;101111.66;4954531;28;98814;-76
2021/08/29 07:34:25;;;;;;;;;;;;;;;20.92;61.68;101114.78;4955110;28;96684;-76
2021/08/29 07:36:52;;;;;;;;;;;;;;;21.00;61.67;101108.84;4955092;28;96854;-75
2021/08/29 07:39:19;;;;;;;;;;;;;;;21.06;61.71;101111.09;4955021;28;99287;-76
2021/08/29 07:41:45;;;;;;;;;;;;;;;21.11;61.36;101110.75;4955223;28;99195;-76
2021/08/29 07:44:12;;;;;;;;;;;;;;;21.06;61.64;101108.41;4955442;28;96709;-75
2021/08/29 07:46:39;;;;;;;;;;;;;;;21.03;61.77;101114.00;4955370;28;96796;-74
2021/08/29 07:49:06;;;;;;;;;;;;;;;21.01;61.13;101114.09;4959211;28;98879;-77
2021/08/29 07:51:32;;;;;;;;;;;;;;;21.11;61.03;101113.44;4958158;28;98379;-75
2021/08/29 07:53:58;;;;;;;;;;;;;;;21.07;61.29;101116.31;4964662;28;96682;-76
2021/08/29 07:56:25;;;;;;;;;;;;;;;21.09;61.16;101119.78;4978821;28;96897;-75
2021/08/29 07:58:51;;;;;;;;;;;;;;;20.97;61.81;101120.66;4977998;28;99316;-75
2021/08/29 08:01:17;;;;;;;;;;;;;;;21.11;61.46;101116.13;4979714;28;98802;-76
2021/08/29 08:03:45;;;;;;;;;;;;;;;21.12;61.07;101115.16;4978651;28;96783;-75
2021/08/29 08:06:11;;;;;;;;;;;;;;;21.09;61.38;101118.91;4978555;28;96804;-75
2021/08/29 08:08:37;;;;;;;;;;;;;;;21.02;61.90;101123.00;4978311;28;97738;-75
2021/08/29 08:11:04;;;;;;;;;;;;;;;21.06;61.84;101120.00;4978753;28;98787;-75
2021/08/29 08:13:31;;;;;;;;;;;;;;;20.85;61.75;101116.19;4977795;28;97210;-75
2021/08/29 08:15:57;;;;;;;;;;;;;;;20.96;61.11;101126.16;4979152;28;96877;-75
2021/08/29 08:18:23;;;;;;;;;;;;;;;20.89;61.49;101128.41;4984587;28;98206;-75
2021/08/29 08:20:51;;;;;;;;;;;;;;;21.09;61.30;101130.53;4989061;28;99052;-75
2021/08/29 08:23:17;;;;;;;;;;;;;;;21.15;61.07;101128.34;4985447;28;96570;-76
2021/08/29 08:25:43;;;;;;;;;;;;;;;21.20;60.99;101124.38;4981619;28;96817;-75
2021/08/29 08:28:10;;;;;;;;;;;;;;;21.20;60.79;101136.97;4981915;28;97750;-76
2021/08/29 08:30:38;;;;;;;;;;;;;;;21.24;60.59;101138.47;4981236;28;99233;-75
2021/08/29 08:33:06;;;;;;;;;;;;;;;21.42;59.87;101137.09;4983564;28;97344;-76
2021/08/29 08:35:33;;;;;;;;;;;;;;;21.42;60.03;101146.00;4982721;28;96815;-77
2021/08/29 08:38:02;;;;;;;;;;;;;;;21.61;59.81;101144.63;4983367;28;100228;-77
2021/08/29 08:40:37;;;;;;;;;;;;;;;21.62;59.32;101143.66;4983331;28;98476;-75
2021/08/29 08:43:03;;;;;;;;;;;;;;;21.91;58.75;101139.63;4978063;28;96942;-75
2021/08/29 08:45:30;;;;;;;;;;;;;;;22.04;58.41;101142.28;4977013;28;97261;-76
2021/08/29 08:47:57;;;;;;;;;;;;;;;22.22;57.66;101140.84;4977639;28;99052;-76
2021/08/29 08:50:23;;;;;;;;;;;;;;;22.35;57.69;101138.91;4978337;28;98919;-75
2021/08/29 08:52:50;;;;;;;;;;;;;;;22.33;57.55;101142.69;4977939;28;96890;-75
2021/08/29 08:55:18;;;;;;;;;;;;;;;22.47;56.36;101137.94;4977166;28;96913;-75
2021/08/29 08:57:44;;;;;;;;;;;;;;;22.63;56.09;101142.97;4976982;28;98927;-76
2021/08/29 09:00:11;;;;;;;;;;;;;;;22.77;55.72;101145.47;4975560;28;99144;-74
2021/08/29 09:02:37;;;;;;;;;;;;;;;22.89;54.95;101143.63;4977093;28;96613;-76
2021/08/29 09:05:06;;;;;;;;;;;;;;;22.89;54.36;101138.22;4975128;28;96907;-74
2021/08/29 09:07:33;;;;;;;;;;;;;;;23.27;54.61;101130.56;4976158;28;97889;-75
2021/08/29 09:09:59;;;;;;;;;;;;;;;23.20;54.26;101137.44;4977586;28;98719;-76
2021/08/29 09:12:26;;;;;;;;;;;;;;;23.30;53.50;101138.38;4977195;28;96769;-76
2021/08/29 09:14:57;;;;;;;;;;;;;;;23.29;53.65;101136.69;4977523;28;96904;-74
2021/08/29 09:17:28;;;;;;;;;;;;;;;23.67;52.37;101136.22;4982739;28;97852;-74
2021/08/29 09:20:09;;;;;;;;;;;;;;;23.77;52.44;101134.44;4978352;28;97809;-74
2021/08/29 09:22:36;;;;;;;;;;;;;;;23.92;51.32;101129.59;4976035;28;97212;-75
2021/08/29 09:25:03;;;;;;;;;;;;;;;23.96;52.16;101127.50;4977602;28;96797;-74
2021/08/29 09:27:31;;;;;;;;;;;;;;;23.98;52.00;101128.22;4977081;28;99261;-75
2021/08/29 09:29:57;;;;;;;;;;;;;;;24.27;50.75;101134.72;4978108;28;98846;-73
2021/08/29 09:32:24;;;;;;;;;;;;;;;24.29;50.51;101129.16;4978749;28;96670;-75
2021/08/29 09:34:57;;;;;;;;;;;;;;;24.36;50.22;101123.09;4976305;28;96967;-76
2021/08/29 09:37:23;;;;;;;;;;;;;;;24.54;50.19;101121.50;4975280;28;98963;-75
2021/08/29 09:39:49;;;;;;;;;;;;;;;24.60;49.93;101122.78;4975272;28;99313;-74
2021/08/29 09:42:15;;;;;;;;;;;;;;;24.26;50.19;101126.72;4974553;28;97183;-75
2021/08/29 09:44:43;;;;;;;;;;;;;;;24.32;49.77;101121.66;4975526;28;96835;-75
2021/08/29 09:47:11;;;;;;;;;;;;;;;23.97;50.68;101121.97;4975037;28;99331;-76
2021/08/29 09:49:38;;;;;;;;;;;;;;;23.94;51.58;101122.22;4975666;28;98862;-77
2021/08/29 09:52:05;;;;;;;;;;;;;;;24.10;50.93;101127.16;4975413;28;96922;-76
2021/08/29 09:54:32;;;;;;;;;;;;;;;24.22;50.58;101120.72;4975967;28;96943;-77
2021/08/29 09:56:59;;;;;;;;;;;;;;;24.21;50.54;101119.03;4974577;28;98864;-76
2021/08/29 09:59:38;;;;;;;;;;;;;;;23.75;51.20;101114.00;4956521;28;100042;-76
2021/08/29 10:02:06;;;;;;;;;;;;;;;24.01;50.47;101106.38;4969778;28;97065;-75
2021/08/29 10:04:32;;;;;;;;;;;;;;;23.84;51.42;101110.50;4969107;28;96770;-76
2021/08/29 10:07:09;;;;;;;;;;;;;;;23.52;51.35;101104.28;4977171;28;98216;-76
2021/08/29 10:09:37;;;;;;;;;;;;;;;23.84;50.90;101105.09;4975922;28;105174;-76
2021/08/29 10:12:04;;;;;;;;;;;;;;;23.95;50.72;101106.91;4974794;28;99992;-75
2021/08/29 10:14:31;;;;;;;;;;;;;;;24.66;48.54;101100.63;4977430;28;96788;-75
2021/08/29 10:16:58;;;;;;;;;;;;;;;24.46;48.86;101102.41;4977272;28;98899;-77
2021/08/29 10:19:27;;;;;;;;;;;;;;;24.86;48.83;101099.72;4979609;28;97589;-75
2021/08/29 10:21:54;;;;;;;;;;;;;;;24.67;48.15;101091.53;4986622;28;96765;-75
2021/08/29 10:24:21;;;;;;;;;;;;;;;24.43;48.78;101086.44;4976376;28;96800;-75
2021/08/29 10:26:51;;;;;;;;;;;;;;;24.21;48.50;101086.63;4975871;28;99244;-77
2021/08/29 10:29:18;;;;;;;;;;;;;;;24.90;47.68;101082.25;4978905;28;99079;-78
2021/08/29 10:31:48;;;;;;;;;;;;;;;24.85;47.41;101081.78;4978775;28;98164;-76
2021/08/29 10:34:15;;;;;;;;;;;;;;;24.32;48.60;101085.69;4978169;28;96790;-77
2021/08/29 10:36:43;;;;;;;;;;;;;;;24.34;47.80;101084.56;4975873;28;100921;-76
2021/08/29 10:39:10;;;;;;;;;;;;;;;24.11;48.29;101083.84;4975437;28;99205;-78
2021/08/29 10:41:37;;;;;;;;;;;;;;;23.96;48.69;101079.75;4973444;28;96866;-77
2021/08/29 10:44:03;;;;;;;;;;;;;;;23.90;49.33;101079.41;4975749;28;97198;-77
2021/08/29 10:46:30;;;;;;;;;;;;;;;24.27;48.92;101077.13;4974557;28;101732;-77
2021/08/29 10:48:59;;;;;;;;;;;;;;;24.53;48.16;101071.16;4974471;28;99209;-76
2021/08/29 10:51:26;;;;;;;;;;;;;;;25.17;47.62;101072.63;4975351;28;96743;-77
2021/08/29 10:53:57;;;;;;;;;;;;;;;25.14;47.35;101068.34;4975382;28;96922;-77
2021/08/29 10:56:29;;;;;;;;;;;;;;;24.39;46.59;101059.84;4975183;28;98258;-78
2021/08/29 10:59:10;;;;;;;;;;;;;;;24.86;46.17;101069.97;4974649;28;97827;-78
2021/08/29 11:01:37;;;;;;;;;;;;;;;25.33;45.72;101064.81;4973705;28;97300;-78
2021/08/29 11:04:33;;;;;;;;;;;;;;;24.81;46.01;101064.09;4970606;28;97045;-76
2021/08/29 11:07:02;;;;;;;;;;;;;;;24.64;47.17;101056.69;4973594;28;98159;-76
2021/08/29 11:09:46;;;;;;;;;;;;;;;25.21;47.17;101057.81;4974268;28;98939;-77
2021/08/29 11:12:31;;;;;;;;;;;;;;;25.26;46.73;101063.69;4974436;28;97109;-77
2021/08/29 11:14:59;;;;;;;;;;;;;;;24.52;47.90;101065.88;4977309;28;96751;-78
2021/08/29 11:17:27;;;;;;;;;;;;;;;25.06;47.72;101062.81;4981865;28;97819;-77
2021/08/29 11:19:54;;;;;;;;;;;;;;;25.45;45.98;101066.38;4975853;28;96843;-77
2021/08/29 11:22:22;;;;;;;;;;;;;;;25.87;45.14;101071.50;4975081;28;96834;-78
2021/08/29 11:25:00;;;;;;;;;;;;;;;25.74;44.62;101064.53;4978547;28;96800;-76
2021/08/29 11:27:50;;;;;;;;;;;;;;;25.60;45.26;101069.56;4977543;28;97714;-77
2021/08/29 11:30:17;;;;;;;;;;;;;;;25.94;44.73;101069.91;4978085;28;99112;-77
2021/08/29 11:32:47;;;;;;;;;;;;;;;24.58;45.27;101070.72;4978392;28;96841;-78
2021/08/29 11:35:14;;;;;;;;;;;;;;;25.45;43.84;101062.81;4978677;28;97693;-78
2021/08/29 11:37:41;;;;;;;;;;;;;;;26.40;42.34;101072.66;4977992;28;101191;-77
2021/08/29 11:40:10;;;;;;;;;;;;;;;26.76;42.07;101068.25;4977887;28;98857;-76
2021/08/29 11:42:37;;;;;;;;;;;;;;;25.95;43.14;101069.78;4978455;28;96690;-76
2021/08/29 11:45:05;;;;;;;;;;;;;;;25.89;43.31;101058.69;4978023;28;96878;-77
2021/08/29 11:47:37;;;;;;;;;;;;;;;25.96;43.39;101057.09;4979834;28;98165;-77
2021/08/29 11:50:04;;;;;;;;;;;;;;;25.60;43.24;101051.44;4986306;28;98311;-77
2021/08/29 11:52:32;;;;;;;;;;;;;;;25.54;43.51;101051.97;4988961;28;96785;-77
2021/08/29 11:55:13;;;;;;;;;;;;;;;25.37;44.27;101050.00;4995153;28;96763;-77
2021/08/29 11:57:46;;;;;;;;;;;;;;;25.66;44.55;101055.44;4995398;28;98163;-77
2021/08/29 12:00:13;;;;;;;;;;;;;;;25.61;44.69;101058.56;4979175;28;97056;-77
2021/08/29 12:02:41;;;;;;;;;;;;;;;25.26;44.21;101052.84;4998476;28;96615;-76
2021/08/29 12:05:09;;;;;;;;;;;;;;;25.30;44.45;101044.31;4998290;28;96011;-77
2021/08/29 12:07:37;;;;;;;;;;;;;;;24.89;44.84;101042.69;5000965;28;98315;-75
2021/08/29 12:10:03;;;;;;;;;;;;;;;24.67;45.43;101040.19;5000634;28;98098;-75
2021/08/29 12:12:31;;;;;;;;;;;;;;;25.42;44.26;101036.91;4998146;28;96557;-76
2021/08/29 12:14:59;;;;;;;;;;;;;;;25.22;45.14;101046.00;5001120;28;95990;-76
2021/08/29 12:17:26;;;;;;;;;;;;;;;25.98;44.30;101055.09;5000700;28;97878;-76
2021/08/29 12:19:52;;;;;;;;;;;;;;;26.31;43.14;101051.06;5001161;28;97841;-75
2021/08/29 12:22:19;;;;;;;;;;;;;;;26.01;43.26;101052.09;4999857;28;96856;-75
2021/08/29 12:24:47;;;;;;;;;;;;;;;26.28;42.78;101063.03;4993165;28;96696;-78
2021/08/29 12:27:15;;;;;;;;;;;;;;;26.33;42.41;101060.72;4982249;28;98856;-76
2021/08/29 12:29:47;;;;;;;;;;;;;;;26.11;42.16;101058.34;4980771;28;98036;-77
2021/08/29 12:32:14;;;;;;;;;;;;;;;25.95;42.56;101045.41;4981405;28;96839;-76
2021/08/29 12:34:41;;;;;;;;;;;;;;;25.79;43.14;101046.03;4980964;28;96830;-78
2021/08/29 12:37:09;;;;;;;;;;;;;;;25.50;43.23;101045.16;4980881;28;97839;-77